createdAt,value
2023-02-22T00:00:34.934Z,12.97
2023-02-22T00:03:18.458Z,17.67
2023-02-22T00:05:57.158Z,14.13
2023-02-22T00:08:29.107Z,12.73
2023-02-22T00:11:11.456Z,11.88
2023-02-22T00:13:42.053Z,10.07
2023-02-22T00:16:09.132Z,15.70
2023-02-22T00:18:42.056Z,12.63
2023-02-22T00:21:12.994Z,14.10
2023-02-22T00:23:50.198Z,12.13
2023-02-22T00:26:23.732Z,16.37
2023-02-22T00:28:54.297Z,14.20
2023-02-22T00:31:23.732Z,10.52
2023-02-22T00:33:53.249Z,11.48
2023-02-22T00:36:30.771Z,11.20
2023-02-22T00:39:00.342Z,11.25
2023-02-22T00:41:30.567Z,11.00
2023-02-22T00:44:03.754Z,12.82
2023-02-22T00:46:37.634Z,11.70
2023-02-22T00:49:08.044Z,11.52
2023-02-22T00:51:38.794Z,11.52
2023-02-22T00:54:08.879Z,12.55
2023-02-22T00:56:44.272Z,15.25
2023-02-22T00:59:11.991Z,10.48
2023-02-22T01:01:44.840Z,12.15
2023-02-22T01:04:17.535Z,11.05
2023-02-22T01:06:52.084Z,8.73
2023-02-22T01:09:21.620Z,8.68
2023-02-22T01:11:55.367Z,11.73
2023-02-22T01:14:26.123Z,11.48
2023-02-22T01:17:00.191Z,10.63
2023-02-22T01:19:27.579Z,10.60
2023-02-22T01:22:01.421Z,10.80
2023-02-22T01:24:32.155Z,10.93
2023-02-22T01:27:05.647Z,9.50
2023-02-22T01:29:38.882Z,10.88
2023-02-22T01:32:12.253Z,11.00
2023-02-22T01:34:45.773Z,10.68
2023-02-22T01:37:15.979Z,8.70
2023-02-22T01:39:48.502Z,9.32
2023-02-22T01:42:21.489Z,10.88
2023-02-22T01:47:38.254Z,10.77
2023-02-22T01:50:08.313Z,8.50
2023-02-22T01:52:40.794Z,9.52
2023-02-22T01:55:07.608Z,14.27
2023-02-22T01:57:41.201Z,8.23
2023-02-22T02:00:13.855Z,11.68
2023-02-22T02:02:47.225Z,9.23
2023-02-22T02:05:18.792Z,9.40
2023-02-22T02:07:52.115Z,10.02
2023-02-22T02:10:22.830Z,9.55
2023-02-22T02:12:53.440Z,9.00
2023-02-22T02:15:22.454Z,9.38
2023-02-22T02:17:54.436Z,8.45
2023-02-22T02:20:29.807Z,8.18
2023-02-22T02:23:14.581Z,7.90
2023-02-22T02:25:53.821Z,7.95
2023-02-22T02:28:55.072Z,8.23
2023-02-22T02:31:40.620Z,10.15
2023-02-22T02:34:31.862Z,8.55
2023-02-22T02:37:13.305Z,8.60
2023-02-22T02:40:02.485Z,7.93
2023-02-22T02:42:38.599Z,8.35
2023-02-22T02:45:12.140Z,7.75
2023-02-22T02:47:48.463Z,7.12
2023-02-22T02:50:50.708Z,8.65
2023-02-22T02:53:29.775Z,8.98
2023-02-22T02:56:00.782Z,8.15
2023-02-22T02:58:31.761Z,7.75
2023-02-22T03:01:03.827Z,7.68
2023-02-22T03:03:55.731Z,7.40
2023-02-22T03:06:56.655Z,10.18
2023-02-22T03:10:10.020Z,7.37
2023-02-22T03:12:58.645Z,8.63
2023-02-22T03:15:44.180Z,8.50
2023-02-22T03:18:25.638Z,7.37
2023-02-22T03:21:35.845Z,6.65
2023-02-22T03:24:21.333Z,6.82
2023-02-22T03:27:24.492Z,7.25
2023-02-22T03:30:02.567Z,7.22
2023-02-22T03:32:44.471Z,6.80
2023-02-22T03:35:25.975Z,6.95
2023-02-22T03:38:03.902Z,7.15
2023-02-22T03:40:39.421Z,9.25
2023-02-22T03:43:25.031Z,6.15
2023-02-22T03:45:58.445Z,7.43
2023-02-22T03:48:40.736Z,6.85
2023-02-22T03:51:17.407Z,6.18
2023-02-22T03:53:50.868Z,6.55
2023-02-22T03:56:30.853Z,5.80
2023-02-22T03:59:08.005Z,7.45
2023-02-22T04:01:37.876Z,7.07
2023-02-22T04:04:11.196Z,5.85
2023-02-22T04:06:44.502Z,6.50
2023-02-22T04:09:15.231Z,6.93
2023-02-22T04:11:57.065Z,6.50
2023-02-22T04:14:31.924Z,6.00
2023-02-22T04:17:01.509Z,7.18
2023-02-22T04:19:30.835Z,6.15
2023-02-22T04:21:57.779Z,6.60
2023-02-22T04:24:30.244Z,6.70
2023-02-22T04:27:00.161Z,10.52
2023-02-22T04:29:33.252Z,5.85
2023-02-22T04:34:30.025Z,6.12
2023-02-22T04:37:00.707Z,7.43
2023-02-22T04:39:36.837Z,5.82
2023-02-22T04:42:10.834Z,6.03
2023-02-22T04:44:43.690Z,5.85
2023-02-22T04:47:14.597Z,6.05
2023-02-22T04:49:47.317Z,5.18
2023-02-22T04:52:18.421Z,4.93
2023-02-22T04:54:45.354Z,5.72
2023-02-22T04:57:18.933Z,6.78
2023-02-22T04:59:52.139Z,5.93
2023-02-22T05:02:22.754Z,6.28
2023-02-22T05:04:49.748Z,5.32
2023-02-22T05:07:25.665Z,5.37
2023-02-22T05:09:55.535Z,5.57
2023-02-22T05:12:27.286Z,4.55
2023-02-22T05:14:57.090Z,5.18
2023-02-22T05:17:24.337Z,4.82
2023-02-22T05:19:53.825Z,5.37
2023-02-22T05:22:26.231Z,6.20
2023-02-22T05:24:59.506Z,5.57
2023-02-22T05:27:31.377Z,6.57
2023-02-22T05:29:58.189Z,5.45
2023-02-22T05:32:30.909Z,6.15
2023-02-22T05:35:01.053Z,5.10
2023-02-22T05:37:31.144Z,6.00
2023-02-22T05:40:01.836Z,9.90
2023-02-22T05:42:29.672Z,8.20
2023-02-22T05:45:00.131Z,10.80
2023-02-22T05:47:30.086Z,5.75
2023-02-22T05:49:56.861Z,6.55
2023-02-22T05:52:23.618Z,5.75
2023-02-22T05:54:56.512Z,8.10
2023-02-22T05:57:26.678Z,11.82
2023-02-22T05:59:53.406Z,8.00
2023-02-22T06:02:24.382Z,5.90
2023-02-22T06:04:51.081Z,7.90
2023-02-22T06:07:23.571Z,7.10
2023-02-22T06:09:50.261Z,17.08
2023-02-22T06:12:17.179Z,11.57
2023-02-22T06:14:50.625Z,9.95
2023-02-22T06:17:20.508Z,6.93
2023-02-22T06:19:53.737Z,8.82
2023-02-22T06:25:00.072Z,7.68
2023-02-22T06:27:30.834Z,93.25
2023-02-22T06:29:57.781Z,228.05
2023-02-22T06:32:24.839Z,127.30
2023-02-22T06:34:51.694Z,122.32
2023-02-22T06:37:18.440Z,351.25
2023-02-22T06:39:48.680Z,331.52
2023-02-22T06:42:24.898Z,242.07
2023-02-22T06:44:54.748Z,184.80
2023-02-22T06:47:21.451Z,172.82
2023-02-22T06:49:58.998Z,172.90
2023-02-22T06:52:25.736Z,156.82
2023-02-22T06:54:58.814Z,157.37
2023-02-22T06:59:52.042Z,139.65
2023-02-22T07:02:19.478Z,147.40
2023-02-22T07:04:49.425Z,136.30
2023-02-22T07:07:16.435Z,139.73
2023-02-22T07:09:49.246Z,123.85
2023-02-22T07:12:22.941Z,115.05
2023-02-22T07:14:50.499Z,120.95
2023-02-22T07:17:24.144Z,116.05
2023-02-22T07:19:55.493Z,112.35
2023-02-22T07:22:24.965Z,96.40
2023-02-22T07:24:55.174Z,99.25
2023-02-22T07:27:29.675Z,81.47
2023-02-22T07:29:59.513Z,68.85
2023-02-22T07:32:30.294Z,65.05
2023-02-22T07:34:57.365Z,68.18
2023-02-22T07:37:27.080Z,67.18
2023-02-22T07:40:01.342Z,75.35
2023-02-22T07:42:28.323Z,60.50
2023-02-22T07:44:59.612Z,63.38
2023-02-22T07:47:33.613Z,49.55
2023-02-22T07:50:02.246Z,40.25
2023-02-22T07:52:32.140Z,42.70
2023-02-22T07:54:59.087Z,33.33
2023-02-22T07:57:27.039Z,46.15
2023-02-22T07:59:54.030Z,40.78
2023-02-22T08:02:22.038Z,43.13
2023-02-22T08:04:52.401Z,38.88
2023-02-22T08:07:25.032Z,36.75
2023-02-22T08:09:58.224Z,35.78
2023-02-22T08:12:28.508Z,35.30
2023-02-22T08:14:58.529Z,32.20
2023-02-22T08:17:28.180Z,37.58
2023-02-22T08:20:01.550Z,33.35
2023-02-22T08:22:31.285Z,30.40
2023-02-22T08:24:58.225Z,34.72
2023-02-22T08:27:29.376Z,30.35
2023-02-22T08:29:56.872Z,30.42
2023-02-22T08:32:27.400Z,32.78
2023-02-22T08:34:54.281Z,29.58
2023-02-22T08:37:21.012Z,31.10
2023-02-22T08:39:53.298Z,43.05
2023-02-22T08:42:23.446Z,25.62
2023-02-22T08:44:52.974Z,28.27
2023-02-22T08:47:19.621Z,28.95
2023-02-22T08:49:49.578Z,26.92
2023-02-22T08:52:18.429Z,28.70
2023-02-22T08:54:45.654Z,25.65
2023-02-22T08:57:12.580Z,25.20
2023-02-22T08:59:39.184Z,26.27
2023-02-22T09:02:13.919Z,31.52
2023-02-22T09:04:44.079Z,21.30
2023-02-22T09:07:18.216Z,25.75
2023-02-22T09:09:50.856Z,26.92
2023-02-22T09:12:18.172Z,24.00
2023-02-22T09:14:48.833Z,24.45
2023-02-22T09:17:15.709Z,21.60
2023-02-22T09:19:42.484Z,22.40
2023-02-22T09:22:09.279Z,24.87
2023-02-22T09:24:35.936Z,20.92
2023-02-22T09:27:05.437Z,18.33
2023-02-22T09:29:32.099Z,24.67
2023-02-22T09:32:01.754Z,22.73
2023-02-22T09:34:37.941Z,18.37
2023-02-22T09:37:10.100Z,19.50
2023-02-22T09:39:43.148Z,22.40
2023-02-22T09:44:52.340Z,20.33
2023-02-22T09:47:26.438Z,18.80
2023-02-22T09:50:13.228Z,17.17
2023-02-22T09:52:56.620Z,16.12
2023-02-22T09:55:26.116Z,18.50
2023-02-22T09:57:53.488Z,15.93
2023-02-22T10:00:24.055Z,18.52
2023-02-22T10:03:05.299Z,18.17
2023-02-22T10:05:37.277Z,17.30
2023-02-22T10:08:11.452Z,17.37
2023-02-22T10:10:43.327Z,19.85
2023-02-22T10:13:31.779Z,17.90
2023-02-22T10:16:18.097Z,13.98
2023-02-22T10:19:16.990Z,13.05
2023-02-22T10:21:53.307Z,19.08
2023-02-22T10:24:44.234Z,19.73
2023-02-22T10:27:21.159Z,15.05
2023-02-22T10:30:24.591Z,16.48
2023-02-22T10:32:59.357Z,17.92
2023-02-22T10:35:33.441Z,20.58
2023-02-22T10:38:11.718Z,16.33
2023-02-22T10:40:39.071Z,20.15
2023-02-22T10:43:08.422Z,16.37
2023-02-22T10:45:36.321Z,14.98
2023-02-22T10:48:20.277Z,13.88
2023-02-22T10:50:52.491Z,16.20
2023-02-22T10:53:19.611Z,20.35
2023-02-22T10:56:10.477Z,15.15
2023-02-22T10:58:51.710Z,14.15
2023-02-22T11:01:32.990Z,16.80
2023-02-22T11:04:13.767Z,13.68
2023-02-22T11:06:49.818Z,15.73
2023-02-22T11:09:34.512Z,14.05
2023-02-22T11:12:19.540Z,16.27
2023-02-22T11:14:50.186Z,15.20
2023-02-22T11:17:28.111Z,26.27
2023-02-22T11:19:58.705Z,14.10
2023-02-22T11:22:39.869Z,12.40
2023-02-22T11:25:18.980Z,14.98
2023-02-22T11:27:46.418Z,14.57
2023-02-22T11:30:29.296Z,15.77
2023-02-22T11:33:17.155Z,17.45
2023-02-22T11:35:51.790Z,11.35
2023-02-22T11:38:23.002Z,15.80
2023-02-22T11:41:07.044Z,12.15
2023-02-22T11:43:37.760Z,17.92
2023-02-22T11:46:11.953Z,15.20
2023-02-22T11:48:42.202Z,15.55
2023-02-22T11:51:35.220Z,12.70
2023-02-22T11:54:33.269Z,10.23
2023-02-22T11:57:48.560Z,11.75
2023-02-22T12:00:23.439Z,10.32
2023-02-22T12:03:16.136Z,12.80
2023-02-22T12:06:10.737Z,12.50
2023-02-22T12:09:03.084Z,10.73
2023-02-22T12:12:00.270Z,16.10
2023-02-22T12:15:08.533Z,10.85
2023-02-22T12:17:54.344Z,9.90
2023-02-22T12:20:27.777Z,10.10
2023-02-22T12:23:29.227Z,9.27
2023-02-22T12:26:11.655Z,9.63
2023-02-22T12:28:40.951Z,8.52
2023-02-22T12:31:18.188Z,8.52
2023-02-22T12:34:04.030Z,9.00
2023-02-22T12:36:40.250Z,8.90
2023-02-22T12:39:51.740Z,10.05
2023-02-22T12:42:54.067Z,9.15
2023-02-22T12:45:56.356Z,8.70
2023-02-22T12:48:42.080Z,7.20
2023-02-22T12:51:44.529Z,9.23
2023-02-22T12:54:22.978Z,7.35
2023-02-22T12:57:12.758Z,8.70
2023-02-22T12:59:50.404Z,7.70
2023-02-22T13:02:21.015Z,8.60
2023-02-22T13:04:54.508Z,6.57
2023-02-22T13:07:34.691Z,9.10
2023-02-22T13:10:24.577Z,5.85
2023-02-22T13:13:09.930Z,5.80
2023-02-22T13:16:29.382Z,5.30
2023-02-22T13:19:16.816Z,7.20
2023-02-22T13:21:43.514Z,5.72
2023-02-22T13:24:30.183Z,7.35
2023-02-22T13:27:02.104Z,6.82
2023-02-22T13:29:38.165Z,5.15
2023-02-22T13:32:29.555Z,8.25
2023-02-22T13:35:09.300Z,5.53
2023-02-22T13:38:13.665Z,8.20
2023-02-22T13:40:49.440Z,7.68
2023-02-22T13:43:25.245Z,6.97
2023-02-22T13:45:59.963Z,4.53
2023-02-22T13:48:41.817Z,6.60
2023-02-22T13:51:47.886Z,6.78
2023-02-22T13:54:33.108Z,5.97
2023-02-22T13:57:04.919Z,5.95
2023-02-22T13:59:37.155Z,5.43
2023-02-22T14:02:05.978Z,7.03
2023-02-22T14:04:38.908Z,5.47
2023-02-22T14:09:55.918Z,4.82
2023-02-22T14:12:31.532Z,7.05
2023-02-22T14:15:18.720Z,6.85
2023-02-22T14:18:06.514Z,6.60
2023-02-22T14:20:36.400Z,6.10
2023-02-22T14:23:29.083Z,6.78
2023-02-22T14:26:09.187Z,6.90
2023-02-22T14:28:46.481Z,5.30
2023-02-22T14:31:33.345Z,9.48
2023-02-22T14:34:15.699Z,8.77
2023-02-22T14:37:07.398Z,5.53
2023-02-22T14:40:04.219Z,7.85
2023-02-22T14:42:39.363Z,6.10
2023-02-22T14:45:18.462Z,6.60
2023-02-22T14:47:54.708Z,5.90
2023-02-22T14:50:34.017Z,7.60
2023-02-22T14:53:26.961Z,7.80
2023-02-22T14:56:02.830Z,8.55
2023-02-22T14:58:48.646Z,9.70
2023-02-22T15:01:55.283Z,10.20
2023-02-22T15:04:31.402Z,7.60
2023-02-22T15:07:00.797Z,6.90
2023-02-22T15:09:33.042Z,10.23
2023-02-22T15:12:07.762Z,11.50
2023-02-22T15:17:17.992Z,9.05
2023-02-22T15:19:46.924Z,9.70
2023-02-22T15:22:26.374Z,7.40
2023-02-22T15:25:05.596Z,11.20
2023-02-22T15:27:33.837Z,10.55
2023-02-22T15:30:24.324Z,9.27
2023-02-22T15:33:03.687Z,7.53
2023-02-22T15:35:33.702Z,8.00
2023-02-22T15:41:29.778Z,7.90
2023-02-22T15:49:22.516Z,11.70
2023-02-22T15:52:02.716Z,12.32
2023-02-22T15:54:30.696Z,9.45
2023-02-22T15:56:57.442Z,8.88
2023-02-22T15:59:31.211Z,6.10
2023-02-22T16:02:02.311Z,8.93
2023-02-22T16:04:31.540Z,8.27
2023-02-22T16:07:16.575Z,8.85
2023-02-22T16:09:49.602Z,9.60
2023-02-22T16:14:54.399Z,9.20
2023-02-22T16:17:49.366Z,21.80
2023-02-22T16:20:27.220Z,10.68
2023-02-22T16:22:59.601Z,16.12
2023-02-22T16:25:33.617Z,9.30
2023-02-22T16:28:03.319Z,11.43
2023-02-22T16:30:36.485Z,10.00
2023-02-22T16:33:08.400Z,12.82
2023-02-22T16:35:35.086Z,8.25
2023-02-22T16:38:07.469Z,11.12
2023-02-22T16:40:38.459Z,6.50
2023-02-22T16:43:18.641Z,9.98
2023-02-22T16:45:50.002Z,11.82
2023-02-22T16:48:28.134Z,9.77
2023-02-22T16:51:02.352Z,7.25
2023-02-22T16:53:32.269Z,11.18
2023-02-22T16:56:04.501Z,10.43
2023-02-22T16:58:38.064Z,9.40
2023-02-22T17:01:06.545Z,6.72
2023-02-22T17:03:33.910Z,8.88
2023-02-22T17:06:01.245Z,12.60
2023-02-22T17:08:28.121Z,8.93
2023-02-22T17:10:58.020Z,8.85
2023-02-22T17:13:30.385Z,11.88
2023-02-22T17:16:02.064Z,6.32
2023-02-22T17:18:31.268Z,9.95
2023-02-22T17:21:02.681Z,8.40
2023-02-22T17:23:32.131Z,10.02
2023-02-22T17:26:02.453Z,9.23
2023-02-22T17:28:43.001Z,15.65
2023-02-22T17:31:35.970Z,8.32
2023-02-22T17:34:08.006Z,18.25
2023-02-22T17:36:42.171Z,21.58
2023-02-22T17:39:11.360Z,26.55
2023-02-22T17:41:43.593Z,28.80
2023-02-22T17:44:16.915Z,31.42
2023-02-22T17:46:56.928Z,37.22
2023-02-22T17:49:28.066Z,44.83
2023-02-22T17:52:00.830Z,38.83
2023-02-22T17:54:30.693Z,44.38
2023-02-22T17:56:58.318Z,39.67
2023-02-22T17:59:25.374Z,35.55
2023-02-22T18:01:55.880Z,29.90
2023-02-22T18:04:31.903Z,34.05
2023-02-22T18:06:59.476Z,37.58
2023-02-22T18:09:26.727Z,33.22
2023-02-22T18:11:56.757Z,28.58
2023-02-22T18:14:24.065Z,27.70
2023-02-22T18:16:51.399Z,29.83
2023-02-22T18:19:19.952Z,29.75
2023-02-22T18:21:48.783Z,25.60
2023-02-22T18:24:16.516Z,25.58
2023-02-22T18:26:47.139Z,26.42
2023-02-22T18:29:17.868Z,24.33
2023-02-22T18:32:08.551Z,21.00
2023-02-22T18:34:36.220Z,22.00
2023-02-22T18:37:06.173Z,20.70
2023-02-22T18:39:37.689Z,20.75
2023-02-22T18:42:27.504Z,22.08
2023-02-22T18:44:58.452Z,22.52
2023-02-22T18:51:15.578Z,15.77
2023-02-22T18:53:46.617Z,15.63
2023-02-22T18:57:01.040Z,17.52
2023-02-22T18:59:30.872Z,17.83
2023-02-22T19:02:02.467Z,14.40
2023-02-22T19:04:36.313Z,17.08
2023-02-22T19:10:55.402Z,13.93
2023-02-22T19:13:44.570Z,14.23
2023-02-22T19:16:32.971Z,16.27
2023-02-22T19:19:07.076Z,17.15
2023-02-22T19:21:34.342Z,15.48
2023-02-22T19:24:03.906Z,15.85
2023-02-22T19:27:09.953Z,12.98
2023-02-22T19:29:40.509Z,19.60
2023-02-22T22:32:23.175Z,9.88
2023-02-22T22:41:19.836Z,9.30
2023-02-22T23:20:02.077Z,8.32
2023-02-22T23:26:10.850Z,10.73
